sensor_id;sensor_type;location;lat;lon;timestamp;pressure;altitude;pressure_sealevel;temperature;humidity
10720;BME280;5411;58.386;15.560;2022-07-23T00:00:56;100240.00;;;17.75;100.00
10720;BME280;5411;58.386;15.560;2022-07-23T00:03:25;100235.06;;;17.67;100.00
10720;BME280;5411;58.386;15.560;2022-07-23T00:05:54;100238.25;;;17.64;100.00
10720;BME280;5411;58.386;15.560;2022-07-23T00:08:24;100236.59;;;17.63;100.00
10720;BME280;5411;58.386;15.560;2022-07-23T00:10:53;100236.84;;;17.61;100.00
10720;BME280;5411;58.386;15.560;2022-07-23T00:13:21;100230.56;;;17.56;100.00
10720;BME280;5411;58.386;15.560;2022-07-23T00:15:50;100231.63;;;17.55;100.00
10720;BME280;5411;58.386;15.560;2022-07-23T00:18:18;100238.34;;;17.52;100.00
10720;BME280;5411;58.386;15.560;2022-07-23T00:20:47;100234.56;;;17.53;100.00
10720;BME280;5411;58.386;15.560;2022-07-23T00:23:22;100236.22;;;17.54;100.00
10720;BME280;5411;58.386;15.560;2022-07-23T00:25:54;100233.00;;;17.57;100.00
10720;BME280;5411;58.386;15.560;2022-07-23T00:28:25;100238.97;;;17.59;100.00
10720;BME280;5411;58.386;15.560;2022-07-23T00:30:53;100246.00;;;17.60;100.00
10720;BME280;5411;58.386;15.560;2022-07-23T00:33:21;100244.69;;;17.63;100.00
10720;BME280;5411;58.386;15.560;2022-07-23T00:35:49;100234.22;;;17.66;100.00
10720;BME280;5411;58.386;15.560;2022-07-23T00:38:17;100237.50;;;17.68;100.00
10720;BME280;5411;58.386;15.560;2022-07-23T00:40:47;100233.41;;;17.66;100.00
10720;BME280;5411;58.386;15.560;2022-07-23T00:43:15;100237.66;;;17.62;100.00
10720;BME280;5411;58.386;15.560;2022-07-23T00:45:43;100231.91;;;17.58;100.00
10720;BME280;5411;58.386;15.560;2022-07-23T00:48:11;100229.16;;;17.53;100.00
10720;BME280;5411;58.386;15.560;2022-07-23T00:50:41;100229.41;;;17.52;100.00
10720;BME280;5411;58.386;15.560;2022-07-23T00:53:16;100230.81;;;17.54;100.00
10720;BME280;5411;58.386;15.560;2022-07-23T00:55:48;100227.31;;;17.59;100.00
10720;BME280;5411;58.386;15.560;2022-07-23T00:58:17;100227.66;;;17.62;100.00
10720;BME280;5411;58.386;15.560;2022-07-23T01:00:46;100217.63;;;17.63;100.00
10720;BME280;5411;58.386;15.560;2022-07-23T01:03:14;100221.28;;;17.68;100.00
10720;BME280;5411;58.386;15.560;2022-07-23T01:05:42;100226.94;;;17.67;100.00
10720;BME280;5411;58.386;15.560;2022-07-23T01:08:10;100230.44;;;17.67;100.00
10720;BME280;5411;58.386;15.560;2022-07-23T01:10:39;100230.44;;;17.67;100.00
10720;BME280;5411;58.386;15.560;2022-07-23T01:13:09;100225.03;;;17.67;100.00
10720;BME280;5411;58.386;15.560;2022-07-23T01:15:38;100225.53;;;17.64;100.00
10720;BME280;5411;58.386;15.560;2022-07-23T01:18:07;100233.41;;;17.66;100.00
10720;BME280;5411;58.386;15.560;2022-07-23T01:20:35;100231.78;;;17.65;100.00
10720;BME280;5411;58.386;15.560;2022-07-23T01:23:05;100236.84;;;17.61;100.00
10720;BME280;5411;58.386;15.560;2022-07-23T01:25:33;100227.66;;;17.62;100.00
10720;BME280;5411;58.386;15.560;2022-07-23T01:28:01;100234.22;;;17.66;100.00
10720;BME280;5411;58.386;15.560;2022-07-23T01:30:31;100235.63;;;17.69;100.00
10720;BME280;5411;58.386;15.560;2022-07-23T01:32:59;100235.88;;;17.67;100.00
10720;BME280;5411;58.386;15.560;2022-07-23T01:35:27;100232.66;;;17.70;100.00
10720;BME280;5411;58.386;15.560;2022-07-23T01:37:58;100232.69;;;17.75;100.00
10720;BME280;5411;58.386;15.560;2022-07-23T01:40:28;100239.81;;;17.82;100.00
10720;BME280;5411;58.386;15.560;2022-07-23T01:42:57;100239.56;;;17.83;100.00
10720;BME280;5411;58.386;15.560;2022-07-23T01:45:26;100235.22;;;17.82;100.00
10720;BME280;5411;58.386;15.560;2022-07-23T01:47:54;100229.19;;;17.75;100.00
10720;BME280;5411;58.386;15.560;2022-07-23T01:50:22;100244.66;;;17.79;100.00
10720;BME280;5411;58.386;15.560;2022-07-23T01:52:50;100250.66;;;17.82;100.00
10720;BME280;5411;58.386;15.560;2022-07-23T01:55:19;100248.22;;;17.85;100.00
10720;BME280;5411;58.386;15.560;2022-07-23T01:58:09;100254.47;;;17.86;100.00
10720;BME280;5411;58.386;15.560;2022-07-23T02:00:43;100253.16;;;17.88;100.00
10720;BME280;5411;58.386;15.560;2022-07-23T02:03:11;100247.75;;;17.88;100.00
10720;BME280;5411;58.386;15.560;2022-07-23T02:05:40;100242.31;;;17.88;100.00
10720;BME280;5411;58.386;15.560;2022-07-23T02:08:08;100253.16;;;17.88;100.00
10720;BME280;5411;58.386;15.560;2022-07-23T02:10:39;100255.00;;;17.83;100.00
10720;BME280;5411;58.386;15.560;2022-07-23T02:13:09;100254.44;;;17.80;100.00
10720;BME280;5411;58.386;15.560;2022-07-23T02:15:52;100246.31;;;17.80;100.00
10720;BME280;5411;58.386;15.560;2022-07-23T02:18:22;100245.66;;;17.73;100.00
10720;BME280;5411;58.386;15.560;2022-07-23T02:20:50;100242.00;;;17.63;100.00
10720;BME280;5411;58.386;15.560;2022-07-23T02:23:18;100241.88;;;17.53;100.00
10720;BME280;5411;58.386;15.560;2022-07-23T02:25:47;100243.56;;;17.37;100.00
10720;BME280;5411;58.386;15.560;2022-07-23T02:28:17;100243.91;;;17.24;100.00
10720;BME280;5411;58.386;15.560;2022-07-23T02:30:45;100243.53;;;17.15;100.00
10720;BME280;5411;58.386;15.560;2022-07-23T02:33:16;100243.44;;;17.10;100.00
10720;BME280;5411;58.386;15.560;2022-07-23T02:35:44;100242.50;;;16.99;100.00
10720;BME280;5411;58.386;15.560;2022-07-23T02:38:12;100230.72;;;16.89;100.00
10720;BME280;5411;58.386;15.560;2022-07-23T02:40:41;100226.28;;;16.83;100.00
10720;BME280;5411;58.386;15.560;2022-07-23T02:43:10;100228.03;;;16.72;100.00
10720;BME280;5411;58.386;15.560;2022-07-23T02:45:40;100222.03;;;16.70;100.00
10720;BME280;5411;58.386;15.560;2022-07-23T02:48:08;100226.03;;;16.67;100.00
10720;BME280;5411;58.386;15.560;2022-07-23T02:50:39;100226.56;;;16.64;100.00
10720;BME280;5411;58.386;15.560;2022-07-23T02:53:07;100228.22;;;16.54;100.00
10720;BME280;5411;58.386;15.560;2022-07-23T02:55:37;100234.13;;;16.51;100.00
10720;BME280;5411;58.386;15.560;2022-07-23T02:58:05;100231.34;;;16.46;100.00
10720;BME280;5411;58.386;15.560;2022-07-23T03:00:33;100234.53;;;16.43;100.00
10720;BME280;5411;58.386;15.560;2022-07-23T03:03:03;100243.69;;;16.42;100.00
10720;BME280;5411;58.386;15.560;2022-07-23T03:05:31;100246.38;;;16.42;100.00
10720;BME280;5411;58.386;15.560;2022-07-23T03:07:59;100243.09;;;16.39;100.00
10720;BME280;5411;58.386;15.560;2022-07-23T03:10:27;100234.44;;;16.37;100.00
10720;BME280;5411;58.386;15.560;2022-07-23T03:12:55;100237.94;;;16.38;100.00
10720;BME280;5411;58.386;15.560;2022-07-23T03:15:24;100234.53;;;16.43;100.00
10720;BME280;5411;58.386;15.560;2022-07-23T03:17:52;100241.72;;;16.37;100.00
10720;BME280;5411;58.386;15.560;2022-07-23T03:20:21;100242.56;;;16.37;100.00
10720;BME280;5411;58.386;15.560;2022-07-23T03:22:49;100236.06;;;16.38;100.00
10720;BME280;5411;58.386;15.560;2022-07-23T03:25:17;100235.19;;;16.33;100.00
10720;BME280;5411;58.386;15.560;2022-07-23T03:27:45;100236.81;;;16.34;100.00
10720;BME280;5411;58.386;15.560;2022-07-23T03:30:14;100242.22;;;16.34;100.00
10720;BME280;5411;58.386;15.560;2022-07-23T03:32:42;100240.00;;;16.31;100.00
10720;BME280;5411;58.386;15.560;2022-07-23T03:35:11;100234.66;;;16.19;100.00
10720;BME280;5411;58.386;15.560;2022-07-23T03:37:44;100238.56;;;16.12;100.00
10720;BME280;5411;58.386;15.560;2022-07-23T03:40:13;100225.47;;;16.03;100.00
10720;BME280;5411;58.386;15.560;2022-07-23T03:42:41;100225.84;;;15.95;100.00
10720;BME280;5411;58.386;15.560;2022-07-23T03:45:10;100233.25;;;15.88;100.00
10720;BME280;5411;58.386;15.560;2022-07-23T03:47:39;100231.63;;;15.87;100.00
10720;BME280;5411;58.386;15.560;2022-07-23T03:50:07;100232.69;;;15.86;100.00
10720;BME280;5411;58.386;15.560;2022-07-23T03:52:36;100234.91;;;15.89;100.00
10720;BME280;5411;58.386;15.560;2022-07-23T03:55:07;100237.38;;;15.91;100.00
10720;BME280;5411;58.386;15.560;2022-07-23T03:57:35;100243.69;;;15.96;100.00
10720;BME280;5411;58.386;15.560;2022-07-23T04:00:06;100247.53;;;16.00;100.00
10720;BME280;5411;58.386;15.560;2022-07-23T04:02:35;100239.78;;;16.04;100.00
10720;BME280;5411;58.386;15.560;2022-07-23T04:05:04;100244.78;;;16.12;100.00
10720;BME280;5411;58.386;15.560;2022-07-23T04:07:33;100248.63;;;16.16;100.00
10720;BME280;5411;58.386;15.560;2022-07-23T04:10:03;100244.28;;;16.15;100.00
10720;BME280;5411;58.386;15.560;2022-07-23T04:12:37;100240.88;;;16.20;100.00
10720;BME280;5411;58.386;15.560;2022-07-23T04:15:07;100232.06;;;16.24;100.00
10720;BME280;5411;58.386;15.560;2022-07-23T04:17:36;100233.59;;;16.20;100.00
10720;BME280;5411;58.386;15.560;2022-07-23T04:20:05;100236.94;;;16.11;100.00
10720;BME280;5411;58.386;15.560;2022-07-23T04:22:33;100247.75;;;16.11;100.00
10720;BME280;5411;58.386;15.560;2022-07-23T04:25:01;100242.59;;;16.09;100.00
10720;BME280;5411;58.386;15.560;2022-07-23T04:27:36;100237.06;;;16.04;100.00
10720;BME280;5411;58.386;15.560;2022-07-23T04:30:05;100243.88;;;16.07;100.00
10720;BME280;5411;58.386;15.560;2022-07-23T04:32:34;100249.94;;;16.14;100.00
10720;BME280;5411;58.386;15.560;2022-07-23T04:35:02;100256.38;;;16.13;100.00
10720;BME280;5411;58.386;15.560;2022-07-23T04:37:35;100256.06;;;16.09;100.00
10720;BME280;5411;58.386;15.560;2022-07-23T04:40:05;100257.97;;;16.09;100.00
10720;BME280;5411;58.386;15.560;2022-07-23T04:42:33;100263.81;;;16.06;100.00
10720;BME280;5411;58.386;15.560;2022-07-23T04:45:03;100264.78;;;15.99;100.00
10720;BME280;5411;58.386;15.560;2022-07-23T04:47:49;100257.84;;;16.03;100.00
10720;BME280;5411;58.386;15.560;2022-07-23T04:50:17;100260.97;;;16.12;100.00
10720;BME280;5411;58.386;15.560;2022-07-23T04:52:48;100265.88;;;16.15;100.00
10720;BME280;5411;58.386;15.560;2022-07-23T04:55:16;100268.69;;;16.20;100.00
10720;BME280;5411;58.386;15.560;2022-07-23T04:57:50;100266.13;;;16.14;100.00
10720;BME280;5411;58.386;15.560;2022-07-23T05:00:20;100272.34;;;16.14;100.00
10720;BME280;5411;58.386;15.560;2022-07-23T05:02:50;100268.34;;;16.17;100.00
10720;BME280;5411;58.386;15.560;2022-07-23T05:05:18;100272.59;;;16.13;100.00
10720;BME280;5411;58.386;15.560;2022-07-23T05:07:49;100278.81;;;16.13;100.00
10720;BME280;5411;58.386;15.560;2022-07-23T05:10:18;100277.44;;;16.11;100.00
10720;BME280;5411;58.386;15.560;2022-07-23T05:12:46;100283.38;;;16.13;100.00
10720;BME280;5411;58.386;15.560;2022-07-23T05:15:14;100272.94;;;16.16;100.00
10720;BME280;5411;58.386;15.560;2022-07-23T05:17:48;100275.16;;;16.19;100.00
10720;BME280;5411;58.386;15.560;2022-07-23T05:20:16;100277.50;;;16.16;100.00
10720;BME280;5411;58.386;15.560;2022-07-23T05:22:45;100272.84;;;16.11;100.00
10720;BME280;5411;58.386;15.560;2022-07-23T05:25:13;100270.72;;;16.13;100.00
10720;BME280;5411;58.386;15.560;2022-07-23T05:27:41;100272.28;;;16.09;100.00
10720;BME280;5411;58.386;15.560;2022-07-23T05:30:12;100266.88;;;16.09;100.00
10720;BME280;5411;58.386;15.560;2022-07-23T05:32:41;100265.53;;;16.12;100.00
10720;BME280;5411;58.386;15.560;2022-07-23T05:35:11;100266.72;;;16.16;100.00
10720;BME280;5411;58.386;15.560;2022-07-23T05:37:42;100265.31;;;16.13;100.00
10720;BME280;5411;58.386;15.560;2022-07-23T05:40:12;100262.38;;;16.15;100.00
10720;BME280;5411;58.386;15.560;2022-07-23T05:42:41;100266.94;;;16.14;100.00
10720;BME280;5411;58.386;15.560;2022-07-23T05:45:10;100270.16;;;16.11;100.00
10720;BME280;5411;58.386;15.560;2022-07-23T05:47:43;100265.22;;;16.08;100.00
10720;BME280;5411;58.386;15.560;2022-07-23T05:50:13;100262.59;;;16.13;100.00
10720;BME280;5411;58.386;15.560;2022-07-23T05:52:42;100270.09;;;16.23;100.00
10720;BME280;5411;58.386;15.560;2022-07-23T05:55:11;100268.06;;;16.30;100.00
10720;BME280;5411;58.386;15.560;2022-07-23T05:57:40;100259.72;;;16.31;100.00
10720;BME280;5411;58.386;15.560;2022-07-23T06:00:11;100259.22;;;16.34;100.00
10720;BME280;5411;58.386;15.560;2022-07-23T06:02:39;100258.66;;;16.32;100.00
10720;BME280;5411;58.386;15.560;2022-07-23T06:05:08;100260.78;;;16.30;100.00
10720;BME280;5411;58.386;15.560;2022-07-23T06:07:51;100247.63;;;16.34;100.00
10720;BME280;5411;58.386;15.560;2022-07-23T06:10:19;100266.09;;;16.42;100.00
10720;BME280;5411;58.386;15.560;2022-07-23T06:12:48;100259.88;;;16.42;100.00
10720;BME280;5411;58.386;15.560;2022-07-23T06:15:24;100261.53;;;16.43;100.00
10720;BME280;5411;58.386;15.560;2022-07-23T06:17:52;100256.00;;;16.49;100.00
10720;BME280;5411;58.386;15.560;2022-07-23T06:20:20;100264.97;;;16.55;100.00
10720;BME280;5411;58.386;15.560;2022-07-23T06:22:53;100259.09;;;16.58;100.00
10720;BME280;5411;58.386;15.560;2022-07-23T06:25:22;100265.66;;;16.62;100.00
10720;BME280;5411;58.386;15.560;2022-07-23T06:27:50;100269.22;;;16.62;100.00
10720;BME280;5411;58.386;15.560;2022-07-23T06:30:18;100270.03;;;16.63;100.00
10720;BME280;5411;58.386;15.560;2022-07-23T06:32:47;100276.94;;;16.59;100.00
10720;BME280;5411;58.386;15.560;2022-07-23T06:35:15;100277.09;;;16.52;100.00
10720;BME280;5411;58.386;15.560;2022-07-23T06:37:50;100272.66;;;16.46;100.00
10720;BME280;5411;58.386;15.560;2022-07-23T06:40:21;100280.78;;;16.46;100.00
10720;BME280;5411;58.386;15.560;2022-07-23T06:42:49;100278.41;;;16.50;100.00
10720;BME280;5411;58.386;15.560;2022-07-23T06:45:19;100281.59;;;16.47;100.00
10720;BME280;5411;58.386;15.560;2022-07-23T06:47:48;100280.06;;;16.51;100.00
10720;BME280;5411;58.386;15.560;2022-07-23T06:50:16;100281.34;;;16.48;100.00
10720;BME280;5411;58.386;15.560;2022-07-23T06:52:44;100275.94;;;16.48;100.00
10720;BME280;5411;58.386;15.560;2022-07-23T06:55:12;100276.25;;;16.52;100.00
10720;BME280;5411;58.386;15.560;2022-07-23T06:57:42;100275.19;;;16.53;100.00
10720;BME280;5411;58.386;15.560;2022-07-23T07:00:11;100286.59;;;16.55;100.00
10720;BME280;5411;58.386;15.560;2022-07-23T07:02:39;100285.41;;;16.62;100.00
10720;BME280;5411;58.386;15.560;2022-07-23T07:05:08;100290.66;;;16.69;100.00
10720;BME280;5411;58.386;15.560;2022-07-23T07:07:36;100291.81;;;16.73;100.00
10720;BME280;5411;58.386;15.560;2022-07-23T07:10:05;100289.34;;;16.71;100.00
10720;BME280;5411;58.386;15.560;2022-07-23T07:12:42;100292.38;;;16.75;100.00
10720;BME280;5411;58.386;15.560;2022-07-23T07:15:11;100289.25;;;16.83;100.00
10720;BME280;5411;58.386;15.560;2022-07-23T07:17:39;100293.53;;;16.96;100.00
10720;BME280;5411;58.386;15.560;2022-07-23T07:20:09;100296.94;;;17.08;100.00
10720;BME280;5411;58.386;15.560;2022-07-23T07:22:38;100296.78;;;17.15;100.00
10720;BME280;5411;58.386;15.560;2022-07-23T07:25:07;100298.44;;;17.16;100.00
10720;BME280;5411;58.386;15.560;2022-07-23T07:27:35;100290.31;;;17.16;100.00
10720;BME280;5411;58.386;15.560;2022-07-23T07:30:07;100294.66;;;17.17;100.00
10720;BME280;5411;58.386;15.560;2022-07-23T07:32:35;100297.38;;;17.17;100.00
10720;BME280;5411;58.386;15.560;2022-07-23T07:35:21;100293.03;;;17.16;100.00
10720;BME280;5411;58.386;15.560;2022-07-23T07:37:49;100295.97;;;17.14;100.00
10720;BME280;5411;58.386;15.560;2022-07-23T07:40:18;100300.38;;;17.20;100.00
10720;BME280;5411;58.386;15.560;2022-07-23T07:42:46;100303.41;;;17.24;100.00
10720;BME280;5411;58.386;15.560;2022-07-23T07:45:16;100306.13;;;17.24;100.00
10720;BME280;5411;58.386;15.560;2022-07-23T07:47:44;100301.19;;;17.21;100.00
10720;BME280;5411;58.386;15.560;2022-07-23T07:50:12;100301.38;;;17.14;100.00
10720;BME280;5411;58.386;15.560;2022-07-23T07:52:40;100309.66;;;17.07;100.00
10720;BME280;5411;58.386;15.560;2022-07-23T07:55:10;100310.56;;;16.96;100.00
10720;BME280;5411;58.386;15.560;2022-07-23T07:57:38;100315.97;;;16.96;100.00
10720;BME280;5411;58.386;15.560;2022-07-23T08:00:13;100316.31;;;17.00;100.00
10720;BME280;5411;58.386;15.560;2022-07-23T08:02:45;100319.72;;;16.95;100.00
10720;BME280;5411;58.386;15.560;2022-07-23T08:05:14;100320.72;;;16.89;100.00
10720;BME280;5411;58.386;15.560;2022-07-23T08:07:42;100322.38;;;16.90;100.00
10720;BME280;5411;58.386;15.560;2022-07-23T08:10:13;100322.69;;;16.94;100.00
10720;BME280;5411;58.386;15.560;2022-07-23T08:12:42;100326.28;;;16.99;100.00
10720;BME280;5411;58.386;15.560;2022-07-23T08:15:12;100333.81;;;16.97;100.00
10720;BME280;5411;58.386;15.560;2022-07-23T08:17:43;100337.09;;;16.99;100.00
10720;BME280;5411;58.386;15.560;2022-07-23T08:20:14;100342.34;;;17.06;100.00
10720;BME280;5411;58.386;15.560;2022-07-23T08:22:44;100338.09;;;17.10;100.00
10720;BME280;5411;58.386;15.560;2022-07-23T08:25:13;100332.44;;;17.12;100.00
10720;BME280;5411;58.386;15.560;2022-07-23T08:27:41;100330.31;;;17.14;100.00
10720;BME280;5411;58.386;15.560;2022-07-23T08:30:10;100328.44;;;17.14;100.00
10720;BME280;5411;58.386;15.560;2022-07-23T08:32:56;100325.47;;;17.16;100.00
10720;BME280;5411;58.386;15.560;2022-07-23T08:35:28;100326.53;;;17.15;100.00
10720;BME280;5411;58.386;15.560;2022-07-23T08:37:58;100334.47;;;17.21;100.00
10720;BME280;5411;58.386;15.560;2022-07-23T08:40:29;100346.34;;;17.20;100.00
10720;BME280;5411;58.386;15.560;2022-07-23T08:43:20;100339.81;;;17.16;100.00
10720;BME280;5411;58.386;15.560;2022-07-23T08:45:51;100343.72;;;17.08;100.00
10720;BME280;5411;58.386;15.560;2022-07-23T08:48:22;100345.28;;;17.04;100.00
10720;BME280;5411;58.386;15.560;2022-07-23T08:50:54;100351.50;;;17.05;100.00
10720;BME280;5411;58.386;15.560;2022-07-23T08:53:25;100350.78;;;17.09;100.00
10720;BME280;5411;58.386;15.560;2022-07-23T08:55:57;100354.88;;;17.12;100.00
10720;BME280;5411;58.386;15.560;2022-07-23T08:58:26;100354.31;;;17.10;100.00
10720;BME280;5411;58.386;15.560;2022-07-23T09:00:54;100359.00;;;17.15;100.00
10720;BME280;5411;58.386;15.560;2022-07-23T09:03:27;100355.94;;;17.11;100.00
10720;BME280;5411;58.386;15.560;2022-07-23T09:05:56;100349.47;;;17.12;100.00
10720;BME280;5411;58.386;15.560;2022-07-23T09:08:26;100353.00;;;17.13;100.00
10720;BME280;5411;58.386;15.560;2022-07-23T09:11:03;100352.31;;;17.05;100.00
10720;BME280;5411;58.386;15.560;2022-07-23T09:13:34;100358.00;;;17.04;100.00
10720;BME280;5411;58.386;15.560;2022-07-23T09:16:05;100351.84;;;17.08;100.00
10720;BME280;5411;58.386;15.560;2022-07-23T09:18:39;100356.53;;;17.13;100.00
10720;BME280;5411;58.386;15.560;2022-07-23T09:21:17;100354.97;;;17.17;100.00
10720;BME280;5411;58.386;15.560;2022-07-23T09:23:48;100362.34;;;17.22;100.00
10720;BME280;5411;58.386;15.560;2022-07-23T09:26:25;100357.25;;;17.25;100.00
10720;BME280;5411;58.386;15.560;2022-07-23T09:29:15;100353.25;;;17.28;100.00
10720;BME280;5411;58.386;15.560;2022-07-23T09:31:46;100351.66;;;17.32;100.00
10720;BME280;5411;58.386;15.560;2022-07-23T09:34:20;100347.91;;;17.33;100.00
10720;BME280;5411;58.386;15.560;2022-07-23T09:36:52;100356.09;;;17.38;100.00
10720;BME280;5411;58.386;15.560;2022-07-23T09:39:29;100350.34;;;17.51;100.00
10720;BME280;5411;58.386;15.560;2022-07-23T09:41:58;100350.22;;;17.63;100.00
10720;BME280;5411;58.386;15.560;2022-07-23T09:44:41;100353.94;;;17.73;100.00
10720;BME280;5411;58.386;15.560;2022-07-23T09:47:10;100357.03;;;17.82;100.00
10720;BME280;5411;58.386;15.560;2022-07-23T09:49:40;100348.56;;;17.95;100.00
10720;BME280;5411;58.386;15.560;2022-07-23T09:52:11;100352.94;;;18.01;100.00
10720;BME280;5411;58.386;15.560;2022-07-23T09:54:39;100350.22;;;18.01;100.00
10720;BME280;5411;58.386;15.560;2022-07-23T09:57:09;100348.22;;;17.92;100.00
10720;BME280;5411;58.386;15.560;2022-07-23T09:59:40;100349.78;;;17.88;100.00
10720;BME280;5411;58.386;15.560;2022-07-23T10:02:11;100342.13;;;17.79;100.00
10720;BME280;5411;58.386;15.560;2022-07-23T10:04:43;100354.63;;;17.64;100.00
10720;BME280;5411;58.386;15.560;2022-07-23T10:07:12;100353.06;;;17.68;100.00
10720;BME280;5411;58.386;15.560;2022-07-23T10:09:47;100354.50;;;17.75;100.00
10720;BME280;5411;58.386;15.560;2022-07-23T10:12:20;100345.16;;;17.83;100.00
10720;BME280;5411;58.386;15.560;2022-07-23T10:15:11;100353.81;;;17.85;100.00
10720;BME280;5411;58.386;15.560;2022-07-23T10:17:39;100356.34;;;17.92;100.00
10720;BME280;5411;58.386;15.560;2022-07-23T10:20:09;100359.22;;;17.85;100.00
10720;BME280;5411;58.386;15.560;2022-07-23T10:22:41;100350.28;;;17.85;100.00
10720;BME280;5411;58.386;15.560;2022-07-23T10:25:15;100346.50;;;17.86;100.00
10720;BME280;5411;58.386;15.560;2022-07-23T10:28:28;100347.44;;;17.74;100.00
10720;BME280;5411;58.386;15.560;2022-07-23T10:31:14;100358.22;;;17.69;100.00
10720;BME280;5411;58.386;15.560;2022-07-23T10:34:12;100356.00;;;17.66;100.00
10720;BME280;5411;58.386;15.560;2022-07-23T10:36:47;100351.09;;;17.63;100.00
10720;BME280;5411;58.386;15.560;2022-07-23T10:39:23;100348.84;;;17.60;100.00
10720;BME280;5411;58.386;15.560;2022-07-23T10:42:09;100361.41;;;17.66;100.00
10720;BME280;5411;58.386;15.560;2022-07-23T10:44:39;100352.84;;;17.74;100.00
10720;BME280;5411;58.386;15.560;2022-07-23T10:47:10;100355.69;;;17.85;100.00
10720;BME280;5411;58.386;15.560;2022-07-23T10:49:48;100356.25;;;17.87;100.00
10720;BME280;5411;58.386;15.560;2022-07-23T10:52:23;100358.81;;;17.93;100.00
10720;BME280;5411;58.386;15.560;2022-07-23T10:54:54;100356.53;;;18.07;100.00
10720;BME280;5411;58.386;15.560;2022-07-23T10:57:24;100357.31;;;18.24;100.00
10720;BME280;5411;58.386;15.560;2022-07-23T11:00:26;100366.03;;;18.31;100.00
10720;BME280;5411;58.386;15.560;2022-07-23T11:02:58;100360.31;;;18.28;100.00
10720;BME280;5411;58.386;15.560;2022-07-23T11:05:40;100353.19;;;18.22;100.00
10720;BME280;5411;58.386;15.560;2022-07-23T11:08:19;100361.25;;;18.16;100.00
10720;BME280;5411;58.386;15.560;2022-07-23T11:10:52;100362.78;;;18.07;100.00
10720;BME280;5411;58.386;15.560;2022-07-23T11:13:29;100368.50;;;18.11;100.00
10720;BME280;5411;58.386;15.560;2022-07-23T11:16:12;100370.41;;;18.10;100.00
10720;BME280;5411;58.386;15.560;2022-07-23T11:19:04;100360.63;;;18.09;100.00
10720;BME280;5411;58.386;15.560;2022-07-23T11:21:57;100362.66;;;18.19;100.00
10720;BME280;5411;58.386;15.560;2022-07-23T11:24:27;100362.41;;;18.21;100.00
10720;BME280;5411;58.386;15.560;2022-07-23T11:27:01;100364.66;;;18.29;100.00
10720;BME280;5411;58.386;15.560;2022-07-23T11:29:46;100367.09;;;18.30;100.00
10720;BME280;5411;58.386;15.560;2022-07-23T11:32:38;100367.34;;;18.29;100.00
10720;BME280;5411;58.386;15.560;2022-07-23T11:35:24;100364.78;;;18.17;100.00
10720;BME280;5411;58.386;15.560;2022-07-23T11:38:02;100356.34;;;18.13;100.00
10720;BME280;5411;58.386;15.560;2022-07-23T11:40:34;100351.06;;;18.24;100.00
10720;BME280;5411;58.386;15.560;2022-07-23T11:43:04;100347.69;;;18.38;100.00
10720;BME280;5411;58.386;15.560;2022-07-23T11:45:34;100356.19;;;18.47;100.00
10720;BME280;5411;58.386;15.560;2022-07-23T11:48:16;100351.78;;;18.63;100.00
10720;BME280;5411;58.386;15.560;2022-07-23T11:50:45;100368.06;;;18.68;100.00
10720;BME280;5411;58.386;15.560;2022-07-23T11:53:13;100370.34;;;18.76;100.00
10720;BME280;5411;58.386;15.560;2022-07-23T11:55:44;100370.44;;;18.86;100.00
10720;BME280;5411;58.386;15.560;2022-07-23T11:58:12;100370.19;;;18.88;100.00
10720;BME280;5411;58.386;15.560;2022-07-23T12:00:41;100371.81;;;18.89;100.00
10720;BME280;5411;58.386;15.560;2022-07-23T12:03:09;100376.38;;;18.83;100.00
10720;BME280;5411;58.386;15.560;2022-07-23T12:05:39;100383.25;;;18.64;100.00
10720;BME280;5411;58.386;15.560;2022-07-23T12:08:08;100371.31;;;18.43;100.00
10720;BME280;5411;58.386;15.560;2022-07-23T12:10:40;100383.50;;;18.19;100.00
10720;BME280;5411;58.386;15.560;2022-07-23T12:13:13;100378.63;;;17.99;100.00
10720;BME280;5411;58.386;15.560;2022-07-23T12:15:43;100375.75;;;17.84;100.00
10720;BME280;5411;58.386;15.560;2022-07-23T12:18:13;100380.75;;;17.75;100.00
10720;BME280;5411;58.386;15.560;2022-07-23T12:20:44;100380.25;;;17.61;100.00
10720;BME280;5411;58.386;15.560;2022-07-23T12:23:14;100376.81;;;17.49;100.00
10720;BME280;5411;58.386;15.560;2022-07-23T12:25:48;100378.81;;;17.37;100.00
10720;BME280;5411;58.386;15.560;2022-07-23T12:28:19;100388.47;;;17.33;100.00
10720;BME280;5411;58.386;15.560;2022-07-23T12:30:51;100389.13;;;17.23;100.00
10720;BME280;5411;58.386;15.560;2022-07-23T12:33:31;100386.91;;;17.20;100.00
10720;BME280;5411;58.386;15.560;2022-07-23T12:36:03;100383.00;;;17.28;100.00
10720;BME280;5411;58.386;15.560;2022-07-23T12:38:39;100389.03;;;17.35;100.00
10720;BME280;5411;58.386;15.560;2022-07-23T12:41:07;100394.31;;;17.41;100.00
10720;BME280;5411;58.386;15.560;2022-07-23T12:43:42;100393.88;;;17.50;100.00
10720;BME280;5411;58.386;15.560;2022-07-23T12:46:11;100387.91;;;17.64;100.00
10720;BME280;5411;58.386;15.560;2022-07-23T12:48:52;100387.81;;;17.76;100.00
10720;BME280;5411;58.386;15.560;2022-07-23T12:51:22;100392.53;;;17.86;100.00
10720;BME280;5411;58.386;15.560;2022-07-23T12:54:10;100393.63;;;18.06;100.00
10720;BME280;5411;58.386;15.560;2022-07-23T12:56:44;100384.63;;;18.23;100.00
10720;BME280;5411;58.386;15.560;2022-07-23T12:59:17;100393.25;;;18.41;100.00
10720;BME280;5411;58.386;15.560;2022-07-23T13:01:53;100385.44;;;18.45;100.00